Republican City, Nebraska
Current Conditions -  °F | °C
As of 4:55 PM on Tuesday 21 Oct 2014 (Local Time) from KHDE Reporting Station
Clear Clear  
Wind Chill: 75°   Ceiling: Unl
Heat Index: 75°   Visibility: 10mi
Dew Point: 53°   Wind: 16mph
Humidity: 46%   Direction: 170°S
Pressure: 29.95"   Gusts: NA
Location:  40.1°N, 99.22°W
Report Text: KHDE 212155Z AUTO 17014KT 10SM CLR 24/12 A2995 RMK AO2 T02370115
Loading
Personal Weather Stations






























Interactive Weather Map
Tropical Storm Tracking
New forecast layout! Learn more

10-Day Weather Forecast

Advertisements
Track Severe Weather on mobile